createdAt,value
2022-11-27T00:01:21.812Z,32.97
2022-11-27T00:03:50.517Z,33.30
2022-11-27T00:06:21.406Z,32.57
2022-11-27T00:08:50.473Z,32.13
2022-11-27T00:11:20.561Z,33.07
2022-11-27T00:13:48.998Z,29.07
2022-11-27T00:16:17.281Z,31.17
2022-11-27T00:18:48.268Z,30.73
2022-11-27T00:21:18.260Z,29.90
2022-11-27T00:23:46.590Z,29.37
2022-11-27T00:26:15.157Z,28.37
2022-11-27T00:28:43.245Z,28.97
2022-11-27T00:31:15.395Z,32.10
2022-11-27T00:33:43.800Z,32.37
2022-11-27T00:36:14.570Z,31.23
2022-11-27T00:38:43.024Z,31.70
2022-11-27T00:41:12.930Z,31.87
2022-11-27T00:43:44.664Z,33.23
2022-11-27T00:46:13.657Z,30.30
2022-11-27T00:48:42.098Z,30.97
2022-11-27T00:51:13.732Z,33.80
2022-11-27T00:53:42.280Z,29.73
2022-11-27T00:56:11.285Z,31.73
2022-11-27T00:58:39.413Z,31.63
2022-11-27T01:01:09.175Z,30.50
2022-11-27T01:03:37.366Z,29.57
2022-11-27T01:06:08.780Z,32.00
2022-11-27T01:08:38.846Z,29.40
2022-11-27T01:11:07.224Z,29.43
2022-11-27T01:13:38.422Z,29.03
2022-11-27T01:16:09.365Z,27.13
2022-11-27T01:18:40.788Z,26.87
2022-11-27T01:21:09.636Z,27.90
2022-11-27T01:23:39.649Z,26.07
2022-11-27T01:26:11.426Z,26.17
2022-11-27T01:28:40.782Z,26.70
2022-11-27T01:31:10.614Z,26.70
2022-11-27T01:33:38.979Z,26.10
2022-11-27T01:36:08.844Z,27.50
2022-11-27T01:38:38.772Z,26.37
2022-11-27T01:41:09.994Z,26.87
2022-11-27T01:43:43.070Z,26.70
2022-11-27T01:46:27.333Z,27.37
2022-11-27T01:49:00.440Z,27.90
2022-11-27T01:51:28.726Z,27.27
2022-11-27T01:53:59.118Z,27.03
2022-11-27T01:56:28.707Z,28.27
2022-11-27T01:58:58.448Z,27.37
2022-11-27T02:01:27.003Z,27.20
2022-11-27T02:03:55.935Z,31.07
2022-11-27T02:06:24.801Z,32.70
2022-11-27T02:08:53.529Z,30.53
2022-11-27T02:11:32.334Z,30.00
2022-11-27T02:14:07.610Z,29.83
2022-11-27T02:16:44.177Z,29.03
2022-11-27T02:19:33.119Z,30.87
2022-11-27T02:22:06.400Z,30.27
2022-11-27T02:24:47.328Z,29.17
2022-11-27T02:27:49.003Z,29.80
2022-11-27T02:30:18.940Z,28.90
2022-11-27T02:32:52.918Z,29.60
2022-11-27T02:35:26.788Z,29.07
2022-11-27T02:38:01.404Z,30.60
2022-11-27T02:40:37.941Z,29.87
2022-11-27T02:43:11.000Z,31.13
2022-11-27T02:45:44.141Z,29.73
2022-11-27T02:48:14.952Z,31.40
2022-11-27T02:50:46.147Z,32.70
2022-11-27T02:53:18.492Z,33.10
2022-11-27T02:55:48.130Z,31.80
2022-11-27T02:58:19.475Z,33.37
2022-11-27T03:00:50.213Z,34.30
2022-11-27T03:03:22.754Z,31.50
2022-11-27T03:05:54.809Z,32.53
2022-11-27T03:08:29.641Z,33.53
2022-11-27T03:11:03.361Z,35.47
2022-11-27T03:13:35.936Z,33.00
2022-11-27T03:16:11.389Z,35.57
2022-11-27T03:18:45.086Z,32.43
2022-11-27T03:21:28.468Z,33.97
2022-11-27T03:23:56.771Z,34.90
2022-11-27T03:26:25.042Z,36.90
2022-11-27T03:28:55.011Z,34.33
2022-11-27T03:31:24.918Z,36.93
2022-11-27T03:33:53.984Z,35.20
2022-11-27T03:36:23.521Z,35.67
2022-11-27T03:38:54.338Z,35.93
2022-11-27T03:41:32.799Z,35.10
2022-11-27T03:44:07.809Z,36.63
2022-11-27T03:46:47.513Z,36.43
2022-11-27T03:49:25.734Z,38.13
2022-11-27T03:51:59.887Z,37.80
2022-11-27T03:54:36.484Z,36.57
2022-11-27T03:57:11.080Z,40.73
2022-11-27T03:59:43.966Z,38.70
2022-11-27T04:02:15.132Z,40.87
2022-11-27T04:04:43.334Z,42.47
2022-11-27T04:07:18.344Z,41.37
2022-11-27T04:09:46.506Z,41.43
2022-11-27T04:12:14.605Z,43.90
2022-11-27T04:14:42.897Z,39.57
2022-11-27T04:17:11.247Z,40.20
2022-11-27T04:19:40.870Z,43.83
2022-11-27T04:22:08.936Z,41.07
2022-11-27T04:24:37.191Z,42.23
2022-11-27T04:27:05.406Z,41.30
2022-11-27T04:29:33.687Z,41.67
2022-11-27T04:32:02.240Z,42.97
2022-11-27T04:34:30.316Z,38.83
2022-11-27T04:37:00.412Z,41.27
2022-11-27T04:39:28.561Z,40.80
2022-11-27T04:41:56.704Z,42.87
2022-11-27T04:44:24.884Z,42.77
2022-11-27T04:46:53.042Z,41.00
2022-11-27T04:49:21.163Z,43.23
2022-11-27T04:51:49.363Z,42.67
2022-11-27T04:54:19.111Z,39.17
2022-11-27T04:56:47.262Z,42.03
2022-11-27T04:59:15.363Z,41.00
2022-11-27T05:01:43.545Z,43.57
2022-11-27T05:04:11.762Z,42.60
2022-11-27T05:06:39.926Z,42.33
2022-11-27T05:09:08.256Z,41.13
2022-11-27T05:11:37.937Z,42.30
2022-11-27T05:14:18.405Z,41.83
2022-11-27T05:16:48.795Z,40.77
2022-11-27T05:19:18.353Z,41.33
2022-11-27T05:21:47.800Z,41.90
2022-11-27T05:24:17.012Z,42.17
2022-11-27T05:26:46.698Z,42.70
2022-11-27T05:29:15.894Z,40.47
2022-11-27T05:31:44.617Z,43.17
2022-11-27T05:34:13.345Z,43.43
2022-11-27T05:36:41.620Z,42.07
2022-11-27T05:39:11.181Z,44.07
2022-11-27T05:41:41.768Z,41.83
2022-11-27T05:44:13.677Z,40.73
2022-11-27T05:46:43.835Z,42.53
2022-11-27T05:49:14.430Z,41.43
2022-11-27T05:51:49.212Z,43.30
2022-11-27T05:54:19.210Z,40.10
2022-11-27T05:56:47.490Z,42.90
2022-11-27T05:59:17.743Z,43.43
2022-11-27T06:01:46.002Z,40.03
2022-11-27T06:04:14.549Z,42.57
2022-11-27T06:06:42.754Z,42.47
2022-11-27T06:09:13.111Z,41.57
2022-11-27T06:11:41.746Z,42.60
2022-11-27T06:14:10.604Z,44.40
2022-11-27T06:16:40.253Z,41.90
2022-11-27T06:19:09.068Z,40.97
2022-11-27T06:21:37.907Z,42.83
2022-11-27T06:24:06.592Z,41.90
2022-11-27T06:26:35.965Z,39.90
2022-11-27T06:29:04.608Z,41.60
2022-11-27T06:31:34.473Z,43.10
2022-11-27T06:34:05.648Z,43.03
2022-11-27T06:36:36.780Z,41.53
2022-11-27T06:39:06.490Z,41.30
2022-11-27T06:41:35.189Z,43.13
2022-11-27T06:44:04.014Z,39.93
2022-11-27T06:46:32.711Z,44.13
2022-11-27T06:49:01.692Z,43.57
2022-11-27T06:51:33.075Z,40.57
2022-11-27T06:54:02.398Z,43.03
2022-11-27T06:56:33.105Z,40.13
2022-11-27T06:59:02.661Z,40.43
2022-11-27T07:01:32.886Z,41.80
2022-11-27T07:04:03.503Z,43.77
2022-11-27T07:06:33.243Z,40.93
2022-11-27T07:09:01.308Z,40.40
2022-11-27T07:11:31.845Z,43.07
2022-11-27T07:14:01.945Z,42.57
2022-11-27T07:16:32.109Z,42.23
2022-11-27T07:19:02.383Z,40.83
2022-11-27T07:21:32.480Z,41.50
2022-11-27T07:24:01.713Z,41.07
2022-11-27T07:26:31.237Z,41.57
2022-11-27T07:28:59.744Z,41.60
2022-11-27T07:31:30.156Z,42.80
2022-11-27T07:33:58.849Z,42.23
2022-11-27T07:36:29.250Z,42.13
2022-11-27T07:38:59.239Z,42.17
2022-11-27T07:41:33.425Z,40.43
2022-11-27T07:44:02.302Z,40.50
2022-11-27T07:46:31.109Z,41.27
2022-11-27T07:49:00.650Z,40.50
2022-11-27T07:51:29.269Z,40.80
2022-11-27T07:54:00.439Z,42.47
2022-11-27T07:56:28.632Z,41.30
2022-11-27T07:58:58.225Z,39.77
2022-11-27T08:01:26.423Z,42.43
2022-11-27T08:03:54.615Z,43.93
2022-11-27T08:06:24.393Z,43.13
2022-11-27T08:08:53.231Z,43.73
2022-11-27T08:11:24.469Z,41.00
2022-11-27T08:13:56.879Z,41.57
2022-11-27T08:16:25.309Z,44.23
2022-11-27T08:18:53.831Z,41.33
2022-11-27T08:21:22.309Z,42.10
2022-11-27T08:23:50.695Z,42.33
2022-11-27T08:26:19.105Z,43.07
2022-11-27T08:28:48.860Z,40.87
2022-11-27T08:31:20.847Z,40.63
2022-11-27T08:33:52.028Z,43.83
2022-11-27T08:36:20.241Z,43.63
2022-11-27T08:38:51.797Z,42.20
2022-11-27T08:41:20.609Z,45.70
2022-11-27T08:43:50.746Z,44.00
2022-11-27T08:46:19.295Z,47.07
2022-11-27T08:48:47.911Z,44.27
2022-11-27T08:51:17.109Z,42.43
2022-11-27T08:53:45.916Z,45.93
2022-11-27T08:56:17.513Z,45.13
2022-11-27T08:58:45.668Z,43.83
2022-11-27T09:01:17.372Z,45.17
2022-11-27T09:03:45.834Z,45.20
2022-11-27T09:06:17.629Z,47.23
2022-11-27T09:08:46.621Z,44.77
2022-11-27T09:11:16.727Z,45.47
2022-11-27T09:13:45.496Z,44.03
2022-11-27T09:16:17.398Z,45.03
2022-11-27T09:18:46.602Z,40.57
2022-11-27T09:21:16.344Z,43.03
2022-11-27T09:23:44.625Z,43.77
2022-11-27T09:26:14.613Z,42.60
2022-11-27T09:28:45.659Z,42.83
2022-11-27T09:31:16.829Z,40.53
2022-11-27T09:33:44.946Z,42.23
2022-11-27T09:36:15.166Z,42.53
2022-11-27T09:38:43.585Z,40.90
2022-11-27T09:41:29.595Z,40.10
2022-11-27T09:44:02.886Z,41.83
2022-11-27T09:46:36.211Z,44.77
2022-11-27T09:49:10.898Z,41.87
2022-11-27T09:51:45.606Z,42.63
2022-11-27T09:54:19.857Z,42.03
2022-11-27T09:56:56.111Z,44.07
2022-11-27T09:59:29.453Z,45.73
2022-11-27T10:01:58.986Z,44.70
2022-11-27T10:04:30.383Z,44.13
2022-11-27T10:07:22.190Z,41.37
2022-11-27T10:10:03.543Z,41.20
2022-11-27T10:12:40.966Z,42.30
2022-11-27T10:15:14.489Z,41.70
2022-11-27T10:17:52.288Z,41.77
2022-11-27T10:20:29.581Z,42.10
2022-11-27T10:23:04.336Z,40.33
2022-11-27T10:25:40.086Z,42.03
2022-11-27T10:28:20.439Z,40.90
2022-11-27T10:31:01.403Z,41.40
2022-11-27T10:33:46.727Z,40.60
2022-11-27T10:36:20.418Z,41.80
2022-11-27T10:38:49.531Z,39.30
2022-11-27T10:44:25.548Z,42.00
2022-11-27T10:46:57.987Z,44.50
2022-11-27T10:49:27.535Z,41.07
2022-11-27T10:52:01.968Z,40.10
2022-11-27T10:54:37.601Z,39.53
2022-11-27T10:57:19.452Z,41.70
2022-11-27T11:00:00.379Z,39.33
2022-11-27T11:02:31.443Z,39.60
2022-11-27T11:05:35.050Z,39.17
2022-11-27T11:08:07.823Z,39.60
2022-11-27T11:10:40.076Z,40.90
2022-11-27T11:13:18.771Z,38.10
2022-11-27T11:15:52.174Z,36.87
2022-11-27T11:18:21.323Z,39.83
2022-11-27T11:20:53.581Z,38.97
2022-11-27T11:23:25.345Z,37.90
2022-11-27T11:25:56.669Z,38.60
2022-11-27T11:28:26.051Z,38.00
2022-11-27T11:30:57.372Z,38.87
2022-11-27T11:33:26.252Z,38.50
2022-11-27T11:36:09.700Z,38.73
2022-11-27T11:38:38.764Z,37.77
2022-11-27T11:41:09.649Z,37.73
2022-11-27T11:43:39.326Z,39.23
2022-11-27T11:46:17.930Z,39.93
2022-11-27T11:49:00.655Z,38.47
2022-11-27T11:51:57.459Z,39.17
2022-11-27T11:54:50.500Z,38.70
2022-11-27T11:57:37.692Z,41.37
2022-11-27T12:00:10.111Z,38.43
2022-11-27T12:02:51.701Z,38.83
2022-11-27T12:05:32.798Z,37.73
2022-11-27T12:08:16.639Z,38.57
2022-11-27T12:10:55.616Z,39.30
2022-11-27T12:13:35.338Z,37.30
2022-11-27T12:16:13.975Z,40.13
2022-11-27T12:18:54.520Z,39.87
2022-11-27T12:21:33.878Z,37.63
2022-11-27T12:24:15.668Z,37.93
2022-11-27T12:26:57.351Z,35.50
2022-11-27T12:29:54.261Z,35.90
2022-11-27T12:32:38.511Z,35.23
2022-11-27T12:35:31.264Z,35.67
2022-11-27T12:38:15.574Z,35.30
2022-11-27T12:41:07.732Z,36.00
2022-11-27T12:43:41.594Z,34.97
2022-11-27T12:46:17.201Z,34.70
2022-11-27T12:48:54.472Z,37.63
2022-11-27T12:51:26.321Z,35.97
2022-11-27T12:54:00.147Z,37.47
2022-11-27T12:56:34.072Z,38.97
2022-11-27T12:59:11.128Z,35.70
2022-11-27T13:01:44.712Z,34.07
2022-11-27T13:04:20.464Z,36.50
2022-11-27T13:06:56.160Z,35.90
2022-11-27T13:09:32.016Z,35.07
2022-11-27T13:12:02.882Z,33.77
2022-11-27T13:14:33.248Z,33.50
2022-11-27T13:18:53.455Z,32.20
2022-11-27T13:21:24.705Z,33.03
2022-11-27T13:23:52.916Z,32.67
2022-11-27T13:26:26.644Z,33.67
2022-11-27T13:28:56.878Z,32.17
2022-11-27T13:31:29.213Z,33.27
2022-11-27T13:34:02.529Z,33.50
2022-11-27T13:36:38.314Z,34.47
2022-11-27T13:39:07.112Z,33.00
2022-11-27T13:41:39.959Z,32.77
2022-11-27T13:44:24.168Z,33.33
2022-11-27T13:46:55.201Z,32.93
2022-11-27T13:49:28.520Z,32.80
2022-11-27T13:52:07.008Z,32.67
2022-11-27T13:54:35.098Z,32.00
2022-11-27T13:57:14.137Z,33.47
2022-11-27T13:59:42.248Z,31.30
2022-11-27T14:02:10.590Z,32.13
2022-11-27T14:04:54.478Z,33.00
2022-11-27T14:07:37.564Z,31.37
2022-11-27T14:10:13.005Z,32.17
2022-11-27T14:12:46.386Z,31.40
2022-11-27T14:15:24.578Z,34.40
2022-11-27T14:18:04.588Z,34.57
2022-11-27T14:20:39.033Z,33.83
2022-11-27T14:23:12.205Z,36.00
2022-11-27T14:25:42.797Z,34.97
2022-11-27T14:28:16.800Z,36.70
2022-11-27T14:30:48.476Z,34.73
2022-11-27T14:33:19.445Z,35.27
2022-11-27T14:35:51.990Z,33.90
2022-11-27T14:38:20.820Z,34.00
2022-11-27T14:40:49.643Z,32.80
2022-11-27T14:43:19.510Z,35.30
2022-11-27T14:45:50.063Z,33.90
2022-11-27T14:48:22.782Z,33.27
2022-11-27T14:50:54.168Z,32.10
2022-11-27T14:53:24.884Z,33.27
2022-11-27T14:55:57.789Z,34.43
2022-11-27T14:58:28.406Z,33.60
2022-11-27T15:01:00.560Z,35.93
2022-11-27T15:03:29.543Z,35.73
2022-11-27T15:06:01.098Z,37.17
2022-11-27T15:08:31.194Z,38.87
2022-11-27T15:11:00.811Z,37.07
2022-11-27T15:13:33.385Z,37.33
2022-11-27T15:16:05.420Z,39.37
2022-11-27T15:18:37.151Z,38.33
2022-11-27T15:21:11.159Z,39.23
2022-11-27T15:23:44.951Z,39.77
2022-11-27T15:26:17.824Z,38.63
2022-11-27T15:28:53.460Z,37.30
2022-11-27T15:31:28.012Z,41.13
2022-11-27T15:33:58.075Z,39.30
2022-11-27T15:36:28.359Z,39.37
2022-11-27T15:39:17.531Z,40.33
2022-11-27T15:41:56.721Z,41.30
2022-11-27T15:44:26.210Z,42.57
2022-11-27T15:46:56.812Z,42.67
2022-11-27T15:49:26.186Z,41.80
2022-11-27T15:51:56.661Z,43.17
2022-11-27T15:54:25.317Z,44.40
2022-11-27T15:56:53.519Z,42.53
2022-11-27T15:59:21.796Z,45.70
2022-11-27T16:01:50.386Z,44.40
2022-11-27T16:04:18.522Z,44.23
2022-11-27T16:06:46.590Z,51.47
2022-11-27T16:09:16.013Z,48.13
2022-11-27T16:11:45.340Z,46.90
2022-11-27T16:14:13.732Z,44.17
2022-11-27T16:16:43.026Z,43.73
2022-11-27T16:19:12.295Z,44.87
2022-11-27T16:21:40.635Z,46.67
2022-11-27T16:24:12.043Z,45.80
2022-11-27T16:26:42.105Z,46.37
2022-11-27T16:29:10.723Z,59.30
2022-11-27T16:31:39.003Z,47.10
2022-11-27T16:34:07.199Z,47.53
2022-11-27T16:36:35.774Z,46.80
2022-11-27T16:39:03.841Z,47.07
2022-11-27T16:41:31.831Z,46.33
2022-11-27T16:44:01.221Z,43.97
2022-11-27T16:46:31.271Z,43.53
2022-11-27T16:49:01.404Z,42.97
2022-11-27T16:51:33.214Z,44.03
2022-11-27T16:54:04.191Z,45.67
2022-11-27T16:56:33.364Z,45.10
2022-11-27T16:59:03.644Z,47.17
2022-11-27T17:01:34.663Z,45.33
2022-11-27T17:04:03.684Z,47.23
2022-11-27T17:06:33.798Z,45.77
2022-11-27T17:09:03.964Z,46.97
2022-11-27T17:11:33.881Z,47.63
2022-11-27T17:14:06.424Z,47.83
2022-11-27T17:16:34.907Z,51.97
2022-11-27T17:19:03.319Z,49.43
2022-11-27T17:21:33.399Z,49.17
2022-11-27T17:24:03.245Z,46.83
2022-11-27T17:26:34.142Z,46.53
2022-11-27T17:29:03.695Z,48.10
2022-11-27T17:31:35.491Z,49.53
2022-11-27T17:34:04.251Z,46.53
2022-11-27T17:36:36.912Z,48.57
2022-11-27T17:39:07.228Z,47.83
2022-11-27T17:41:35.898Z,47.03
2022-11-27T17:44:06.416Z,48.50
2022-11-27T17:46:36.330Z,48.00
2022-11-27T17:49:06.663Z,48.13
2022-11-27T17:51:35.786Z,47.23
2022-11-27T17:54:07.369Z,48.23
2022-11-27T17:56:36.542Z,47.60
2022-11-27T17:59:06.139Z,49.37
2022-11-27T18:01:34.869Z,48.10
2022-11-27T18:04:04.216Z,47.63
2022-11-27T18:06:34.757Z,47.87
2022-11-27T18:09:02.946Z,46.40
2022-11-27T18:11:35.028Z,49.47
2022-11-27T18:14:03.615Z,48.53
2022-11-27T18:16:35.744Z,48.40
2022-11-27T18:19:06.007Z,47.00
2022-11-27T18:21:34.150Z,50.27
2022-11-27T18:29:39.917Z,50.37
2022-11-27T18:32:10.515Z,53.70
2022-11-27T18:34:41.311Z,52.83
2022-11-27T18:37:10.075Z,54.73
2022-11-27T18:39:39.961Z,50.90
2022-11-27T18:42:08.789Z,55.50
2022-11-27T18:44:44.422Z,48.30
2022-11-27T18:47:15.488Z,47.97
2022-11-27T18:49:46.154Z,47.73
2022-11-27T18:52:14.458Z,46.93
2022-11-27T18:54:42.504Z,48.77
2022-11-27T18:57:11.239Z,48.03
2022-11-27T18:59:40.032Z,49.03
2022-11-27T19:02:09.223Z,50.33
2022-11-27T19:04:39.217Z,50.93
2022-11-27T19:07:07.636Z,49.33
2022-11-27T19:09:35.708Z,53.70
2022-11-27T19:12:03.957Z,51.70
2022-11-27T19:14:32.079Z,51.03
2022-11-27T19:17:02.664Z,49.53
2022-11-27T19:22:22.409Z,49.53
2022-11-27T19:24:50.488Z,50.20
2022-11-27T19:27:18.537Z,49.63
2022-11-27T19:29:46.565Z,51.03
2022-11-27T19:32:15.940Z,47.67
2022-11-27T19:34:44.220Z,49.30
2022-11-27T19:37:12.399Z,49.30
2022-11-27T19:39:41.851Z,50.53
2022-11-27T19:42:09.955Z,47.53
2022-11-27T19:44:38.052Z,46.73
2022-11-27T19:47:06.688Z,48.63
2022-11-27T19:49:34.864Z,51.93
2022-11-27T19:52:02.832Z,47.77
2022-11-27T19:54:31.063Z,51.27
2022-11-27T19:57:00.552Z,51.50
2022-11-27T19:59:29.212Z,53.10
2022-11-27T20:01:57.664Z,53.97
2022-11-27T20:04:25.861Z,55.80
2022-11-27T20:06:54.166Z,55.87
2022-11-27T20:09:22.217Z,53.03
2022-11-27T20:11:50.261Z,53.37
2022-11-27T20:14:19.688Z,53.17
2022-11-27T20:16:47.928Z,52.13
2022-11-27T20:19:16.064Z,53.20
2022-11-27T20:21:44.456Z,51.77
2022-11-27T20:24:13.105Z,51.57
2022-11-27T20:26:43.035Z,51.90
2022-11-27T20:29:12.426Z,50.03
2022-11-27T20:31:44.574Z,51.63
2022-11-27T20:34:18.408Z,50.73
2022-11-27T20:36:46.790Z,49.20
2022-11-27T20:39:20.530Z,48.87
2022-11-27T20:41:50.911Z,52.10
2022-11-27T20:44:19.271Z,51.27
2022-11-27T20:46:49.044Z,50.90
2022-11-27T20:49:17.369Z,50.73
2022-11-27T20:51:46.691Z,51.40
2022-11-27T20:54:14.940Z,50.83
2022-11-27T20:56:45.602Z,49.93
2022-11-27T20:59:14.012Z,49.93
2022-11-27T21:01:42.626Z,49.57
2022-11-27T21:04:20.846Z,50.20
2022-11-27T21:06:49.172Z,49.67
2022-11-27T21:09:17.539Z,50.67
2022-11-27T21:11:46.201Z,50.83
2022-11-27T21:14:15.820Z,51.37
2022-11-27T21:16:46.958Z,54.03
2022-11-27T21:19:21.030Z,54.07
2022-11-27T21:21:49.947Z,54.77
2022-11-27T21:24:18.735Z,52.57
2022-11-27T21:26:47.626Z,55.67
2022-11-27T21:29:16.533Z,54.67
2022-11-27T21:31:47.034Z,53.20
2022-11-27T21:34:17.495Z,53.10
2022-11-27T21:36:45.939Z,54.17
2022-11-27T21:39:20.177Z,53.87
2022-11-27T21:41:50.510Z,53.70
2022-11-27T21:44:18.986Z,55.20
2022-11-27T21:46:47.075Z,52.83
2022-11-27T21:49:18.222Z,51.07
2022-11-27T21:51:46.299Z,51.43
2022-11-27T21:54:15.981Z,51.77
2022-11-27T21:56:44.023Z,52.63
2022-11-27T21:59:14.024Z,55.20
2022-11-27T22:01:42.212Z,54.70
2022-11-27T22:04:10.311Z,53.03
2022-11-27T22:06:41.481Z,54.27
2022-11-27T22:09:14.959Z,53.20
2022-11-27T22:11:43.666Z,53.03
2022-11-27T22:14:12.208Z,56.57
2022-11-27T22:16:45.191Z,56.53
2022-11-27T22:19:15.962Z,53.40
2022-11-27T22:21:46.004Z,55.03
2022-11-27T22:24:18.901Z,54.17
2022-11-27T22:26:48.207Z,53.90
2022-11-27T22:29:17.345Z,51.90
2022-11-27T22:31:45.834Z,53.53
2022-11-27T22:34:17.723Z,54.13
2022-11-27T22:36:48.006Z,52.13
2022-11-27T22:39:17.280Z,53.87
2022-11-27T22:41:53.911Z,54.37
2022-11-27T22:44:23.693Z,52.90
2022-11-27T22:49:39.923Z,59.77
2022-11-27T22:52:09.437Z,54.37
2022-11-27T22:54:37.680Z,55.20
2022-11-27T22:57:05.763Z,54.33
2022-11-27T22:59:34.690Z,53.33
2022-11-27T23:02:03.635Z,55.90
2022-11-27T23:04:31.816Z,54.33
2022-11-27T23:07:00.432Z,55.17
2022-11-27T23:09:30.830Z,53.83
2022-11-27T23:11:59.440Z,54.87
2022-11-27T23:14:28.238Z,53.40
2022-11-27T23:16:56.557Z,53.70
2022-11-27T23:19:24.758Z,52.50
2022-11-27T23:21:52.848Z,51.10
2022-11-27T23:24:21.062Z,50.63
2022-11-27T23:26:50.576Z,50.67
2022-11-27T23:29:18.616Z,51.13
2022-11-27T23:31:46.696Z,51.30
2022-11-27T23:34:16.054Z,52.07
2022-11-27T23:36:44.599Z,51.43
2022-11-27T23:39:14.167Z,50.50
2022-11-27T23:41:42.697Z,53.27
2022-11-27T23:44:12.236Z,50.67
2022-11-27T23:46:40.671Z,52.17
2022-11-27T23:49:08.908Z,52.00
2022-11-27T23:51:37.216Z,54.47
2022-11-27T23:54:09.794Z,53.40
2022-11-27T23:56:39.399Z,55.80
2022-11-27T23:59:07.668Z,56.53
